Time;durP1;ratioP1;P1;durP2;ratioP2;P2;SDS_P1;SDS_P2;PMS_P1;PMS_P2;Temp;Humidity;BMP_temperature;BMP_pressure;BME280_temperature;BME280_humidity;BME280_pressure;Samples;Min_cycle;Max_cycle;Signal;HPM_P1;HPM_P2
2023/01/14 00:00:25;;;;;;;13.25;7.55;;;17.70;76.10;;;18.39;43.47;98643.97;5086117;28;20063;-79
2023/01/14 00:03:15;;;;;;;14.05;7.38;;;17.70;76.10;;;18.36;43.60;98641.88;5090211;28;20040;-79
2023/01/14 00:05:41;;;;;;;13.73;7.35;;;17.70;76.20;;;18.39;43.80;98650.28;5105948;28;20048;-79
2023/01/14 00:08:08;;;;;;;17.58;8.95;;;17.70;76.10;;;18.33;43.61;98648.81;5072511;28;20052;-79
2023/01/14 00:10:33;;;;;;;11.13;7.80;;;17.70;76.10;;;18.33;43.55;98646.09;5091167;28;20094;-79
2023/01/14 00:13:00;;;;;;;9.02;6.10;;;17.70;76.10;;;18.31;43.63;98653.03;5057120;28;20147;-79
2023/01/14 00:15:26;;;;;;;13.48;7.07;;;17.60;76.00;;;18.35;43.64;98659.50;5070929;28;20044;-79
2023/01/14 00:17:52;;;;;;;14.20;6.40;;;17.60;76.20;;;18.31;43.47;98650.28;5071413;28;20044;-79
2023/01/14 00:20:19;;;;;;;11.57;6.55;;;17.60;76.10;;;18.32;43.55;98655.47;5108275;27;20556;-78
2023/01/14 00:22:45;;;;;;;11.13;6.45;;;17.60;76.00;;;18.34;43.43;98664.19;5074317;28;20470;-79
2023/01/14 00:25:11;;;;;;;12.43;6.60;;;17.60;76.00;;;18.33;43.36;98659.81;5085648;28;20054;-79
2023/01/14 00:27:38;;;;;;;16.33;6.78;;;17.60;76.00;;;18.33;43.45;98662.56;5074802;28;20049;-79
2023/01/14 00:30:04;;;;;;;13.63;6.60;;;17.60;76.00;;;18.36;43.49;98658.34;5086760;28;20045;-79
2023/01/14 00:32:30;;;;;;;10.98;6.10;;;17.50;76.00;;;18.28;43.33;98662.75;5075810;28;20355;-79
2023/01/14 00:34:58;;;;;;;14.30;6.38;;;17.50;76.10;;;18.27;43.58;98665.78;5058946;28;20040;-79
2023/01/14 00:37:24;;;;;;;11.02;5.68;;;17.50;76.10;;;18.27;43.31;98661.13;5071325;28;20036;-79
2023/01/14 00:39:50;;;;;;;10.35;5.93;;;17.50;76.10;;;18.23;43.50;98660.16;5101274;28;20100;-79
2023/01/14 00:42:16;;;;;;;11.05;6.07;;;17.50;76.00;;;18.28;43.42;98662.75;5105524;28;20046;-79
2023/01/14 00:44:42;;;;;;;15.07;7.18;;;17.40;75.90;;;18.28;43.30;98667.44;5105686;28;20043;-79
2023/01/14 00:47:08;;;;;;;9.38;5.28;;;17.50;76.10;;;18.27;43.46;98666.63;5086242;28;20601;-78
2023/01/14 00:49:34;;;;;;;12.07;7.35;;;17.50;75.90;;;18.23;43.56;98677.44;5091935;28;20039;-79
2023/01/14 00:52:02;;;;;;;11.15;6.00;;;17.50;76.10;;;18.32;43.73;98676.59;5089332;28;20043;-79
2023/01/14 00:54:28;;;;;;;9.88;5.70;;;17.60;77.00;;;18.34;44.01;98677.91;5089897;28;20043;-79
2023/01/14 00:56:56;;;;;;;10.73;5.78;;;17.60;77.10;;;18.27;43.68;98682.28;5092166;28;20040;-79
2023/01/14 00:59:22;;;;;;;11.70;6.38;;;17.60;76.30;;;18.25;43.68;98674.38;5071262;28;20051;-79
2023/01/14 01:01:51;;;;;;;10.27;6.35;;;17.60;76.20;;;18.26;43.60;98675.19;5090619;28;20044;-79
2023/01/14 01:04:17;;;;;;;8.90;5.65;;;17.50;76.10;;;18.23;43.63;98682.13;5074447;28;20462;-79
2023/01/14 01:06:43;;;;;;;13.50;6.45;;;17.50;76.30;;;18.26;44.01;98688.91;5108415;28;20063;-79
2023/01/14 01:09:09;;;;;;;9.35;5.35;;;17.50;77.00;;;18.31;44.10;98695.03;5068915;28;20078;-79
2023/01/14 01:11:36;;;;;;;9.93;5.57;;;17.60;77.30;;;18.31;43.99;98696.97;5089705;28;20043;-79
2023/01/14 01:14:02;;;;;;;7.85;4.97;;;17.60;77.10;;;18.25;43.74;98682.63;5055083;28;20095;-79
2023/01/14 01:16:28;;;;;;;9.35;5.93;;;17.50;76.60;;;18.23;43.83;98693.13;5092169;28;20040;-79
2023/01/14 01:18:55;;;;;;;10.40;5.72;;;17.50;76.70;;;18.24;43.67;98686.47;5071996;28;20041;-79
2023/01/14 01:21:23;;;;;;;9.48;5.03;;;17.50;76.70;;;18.17;43.68;98683.44;5057196;28;20040;-79
2023/01/14 01:23:49;;;;;;;11.57;6.25;;;17.50;76.70;;;18.23;44.15;98682.13;5050036;28;20047;-79
2023/01/14 01:26:21;;;;;;;11.52;6.45;;;17.50;77.40;;;18.27;44.09;98690.50;5106240;28;20508;-79
2023/01/14 01:28:49;;;;;;;10.48;6.22;;;17.60;77.30;;;18.26;44.10;98695.19;5074875;28;20043;-79
2023/01/14 01:31:16;;;;;;;9.18;5.57;;;17.50;77.00;;;18.21;44.02;98689.88;5074185;28;20075;-79
2023/01/14 01:33:43;;;;;;;9.18;5.65;;;17.50;76.80;;;18.17;43.88;98689.75;5067468;28;20542;-79
2023/01/14 01:36:16;;;;;;;9.60;6.53;;;17.40;76.80;;;18.18;43.74;98690.53;5089168;28;20036;-79
2023/01/14 01:38:42;;;;;;;10.82;6.30;;;17.40;76.90;;;18.18;43.88;98690.53;5090909;28;20475;-79
2023/01/14 01:41:23;;;;;;;8.40;4.97;;;17.30;76.80;;;18.20;43.43;98688.28;5074580;28;20057;-79
2023/01/14 01:44:10;;;;;;;9.38;5.82;;;17.30;76.90;;;18.16;43.58;98687.31;5088546;28;20035;-79
2023/01/14 01:46:37;;;;;;;9.65;5.10;;;17.30;77.10;;;18.18;43.63;98696.03;5100728;28;20040;-79
2023/01/14 01:49:16;;;;;;;7.65;4.82;;;17.30;77.10;;;18.20;43.50;98693.78;5073010;28;20028;-79
2023/01/14 01:52:20;;;;;;;8.77;5.63;;;17.30;76.90;;;18.16;43.57;98692.81;5090344;28;20050;-79
2023/01/14 01:54:50;;;;;;;11.65;5.50;;;17.30;77.00;;;18.17;43.72;98694.44;5107821;28;21005;-79
2023/01/14 01:57:17;;;;;;;8.65;4.93;;;17.30;77.00;;;18.19;43.59;98700.38;5090060;28;20090;-79
2023/01/14 01:59:46;;;;;;;8.40;4.82;;;17.30;76.80;;;18.16;43.62;98701.03;5073074;28;20048;-79
2023/01/14 02:02:13;;;;;;;11.20;5.53;;;17.30;76.70;;;18.17;43.44;98699.94;5077522;28;20039;-79
2023/01/14 02:04:39;;;;;;;11.50;6.10;;;17.20;76.80;;;18.11;43.67;98707.50;5077472;28;20063;-79
2023/01/14 02:07:23;;;;;;;10.73;6.03;;;17.20;76.90;;;18.14;43.46;98703.28;5095352;27;20043;-79
2023/01/14 02:10:03;;;;;;;7.50;5.13;;;17.20;76.90;;;18.14;43.54;98704.13;5072641;27;20074;-79
2023/01/14 02:13:15;;;;;;;11.83;6.03;;;17.20;76.80;;;18.11;43.51;98710.25;5093273;27;20087;-79
2023/01/14 02:16:14;;;;;;;10.98;5.38;;;17.20;77.00;;;18.11;43.41;98714.94;5108768;27;20043;-79
2023/01/14 02:18:51;;;;;;;12.15;6.07;;;17.20;77.00;;;18.07;43.70;98708.50;5117101;27;20051;-79
2023/01/14 02:21:29;;;;;;;8.73;5.65;;;17.10;76.90;;;18.13;43.54;98704.44;5114296;27;20045;-79
2023/01/14 02:24:52;;;;;;;10.32;4.93;;;17.20;76.90;;;18.10;43.42;98716.09;5099118;27;20443;-79
2023/01/14 02:27:52;;;;;;;7.53;4.88;;;17.20;76.90;;;18.13;43.46;98715.41;5118620;27;20077;-79
2023/01/14 02:30:55;;;;;;;9.20;5.22;;;17.20;76.70;;;18.10;43.48;98724.31;5030052;27;20047;-79
2023/01/14 02:33:41;;;;;;;7.38;5.13;;;17.20;76.80;;;18.06;43.68;98724.13;5132170;27;20519;-79
2023/01/14 02:36:52;;;;;;;7.88;5.18;;;17.20;76.80;;;18.10;43.44;98716.88;5110445;27;20035;-79
2023/01/14 02:39:42;;;;;;;6.88;4.78;;;17.20;76.50;;;18.05;43.46;98727.22;5113321;27;20051;-79
2023/01/14 02:45:19;;;;;;;8.23;4.82;;;17.10;76.80;;;18.08;43.52;98729.31;5128827;27;20043;-79
2023/01/14 02:47:46;;;;;;;6.03;4.78;;;17.10;76.80;;;18.05;43.55;98727.22;5108276;27;20046;-79
2023/01/14 02:50:14;;;;;;;6.80;4.97;;;17.10;76.80;;;18.07;43.59;98735.94;5059472;27;20035;-79
2023/01/14 02:52:41;;;;;;;7.78;4.88;;;17.00;76.80;;;18.03;43.34;98733.03;5093990;27;20044;-79
2023/01/14 02:55:29;;;;;;;9.27;5.30;;;17.10;77.60;;;18.05;43.80;98746.44;5094230;27;20087;-79
2023/01/14 02:58:43;;;;;;;7.80;4.82;;;17.20;77.30;;;18.08;43.96;98748.53;5113683;27;20035;-79
2023/01/14 03:01:28;;;;;;;9.40;5.55;;;17.20;77.40;;;18.06;43.79;98745.28;5114830;27;20066;-79
2023/01/14 03:04:04;;;;;;;10.20;5.78;;;17.20;77.20;;;18.05;43.85;98749.19;5097442;27;20047;-79
2023/01/14 03:06:57;;;;;;;6.65;4.50;;;17.20;77.00;;;17.97;43.90;98746.13;5110462;27;20035;-79
2023/01/14 03:09:32;;;;;;;8.30;4.97;;;17.10;76.90;;;17.92;43.92;98740.78;5097648;27;20490;-79
2023/01/14 03:12:16;;;;;;;7.55;5.43;;;17.00;77.10;;;18.01;44.05;98740.78;5107334;27;20115;-79
2023/01/14 03:14:51;;;;;;;7.10;4.57;;;17.10;77.80;;;18.05;44.23;98751.94;5097121;27;20043;-79
2023/01/14 03:17:34;;;;;;;9.57;4.95;;;17.20;77.80;;;18.02;43.78;98745.16;5096722;27;20043;-79
2023/01/14 03:20:16;;;;;;;7.90;5.32;;;17.20;77.20;;;18.03;44.06;98752.25;5095737;27;20039;-79
2023/01/14 03:22:42;;;;;;;7.03;4.43;;;17.10;77.10;;;17.97;43.75;98734.34;5066736;27;20034;-79
2023/01/14 03:25:09;;;;;;;6.93;5.70;;;17.00;77.30;;;17.99;44.00;98741.13;5095907;27;20112;-79
2023/01/14 03:27:35;;;;;;;7.30;5.18;;;17.00;77.20;;;18.01;43.80;98746.25;5060974;27;20043;-79
2023/01/14 03:30:09;;;;;;;7.95;4.80;;;17.00;77.10;;;17.97;43.78;98753.56;5080700;27;20039;-79
2023/01/14 03:32:44;;;;;;;8.48;4.75;;;17.00;77.30;;;17.94;43.74;98751.47;5078596;27;20031;-79
2023/01/14 03:35:33;;;;;;;6.63;5.07;;;16.90;77.40;;;17.98;43.83;98753.22;5089961;27;20031;-79
2023/01/14 03:38:16;;;;;;;7.75;5.10;;;16.90;77.40;;;17.98;43.61;98761.44;5112482;27;20538;-79
2023/01/14 03:40:42;;;;;;;11.85;5.03;;;17.00;77.20;;;17.98;43.56;98772.41;5073860;27;20035;-79
2023/01/14 03:43:21;;;;;;;8.25;4.25;;;17.00;77.10;;;17.99;43.48;98774.06;5077487;27;20051;-79
2023/01/14 03:45:48;;;;;;;6.78;4.72;;;17.00;77.30;;;18.04;43.99;98772.25;5091057;27;20526;-79
2023/01/14 03:48:14;;;;;;;7.60;5.07;;;17.00;77.80;;;18.05;44.17;98776.63;5091739;27;20581;-79
2023/01/14 03:51:04;;;;;;;5.40;4.28;;;17.10;77.80;;;17.97;43.86;98768.06;5096992;27;20057;-79
2023/01/14 03:53:42;;;;;;;7.93;5.25;;;17.20;77.40;;;17.96;44.08;98776.63;5125271;27;20040;-79
2023/01/14 03:56:28;;;;;;;7.55;4.85;;;17.10;77.40;;;17.99;44.03;98787.78;5109287;27;20035;-79
2023/01/14 03:59:01;;;;;;;7.10;5.25;;;17.00;77.30;;;18.03;43.89;98787.91;5093153;27;20124;-79
2023/01/14 04:01:42;;;;;;;6.70;4.97;;;17.10;77.30;;;18.08;43.89;98795.19;5096093;27;20380;-79
2023/01/14 04:04:08;;;;;;;6.10;4.43;;;17.20;77.10;;;18.10;43.52;98803.91;5076319;27;20040;-79
2023/01/14 04:06:34;;;;;;;6.75;4.82;;;17.20;77.00;;;18.14;43.63;98804.88;5075210;27;20039;-79
2023/01/14 04:09:00;;;;;;;6.70;5.35;;;17.20;76.80;;;18.16;43.54;98808.09;5062639;27;20050;-79
2023/01/14 04:11:26;;;;;;;7.70;4.82;;;17.20;76.90;;;18.20;43.59;98809.88;5094966;27;20045;-79
2023/01/14 04:16:38;;;;;;;7.18;4.47;;;17.20;77.10;;;18.29;43.36;98812.59;5100967;27;20045;-79
2023/01/14 04:19:04;;;;;;;6.93;4.60;;;17.30;77.00;;;18.28;43.24;98811.00;5079106;27;20393;-79
2023/01/14 04:21:30;;;;;;;7.88;4.47;;;17.30;76.80;;;18.32;43.25;98805.66;5111261;27;20043;-79
2023/01/14 04:23:57;;;;;;;8.18;5.03;;;17.30;76.80;;;18.30;43.36;98814.25;5104650;27;20069;-79
2023/01/14 04:26:23;;;;;;;7.07;3.80;;;17.40;77.50;;;18.32;43.33;98820.22;5079188;27;20043;-79
2023/01/14 04:28:49;;;;;;;8.25;4.93;;;17.40;76.60;;;18.36;43.25;98818.41;5108885;27;20035;-79
2023/01/14 04:31:15;;;;;;;6.03;3.90;;;17.40;76.60;;;18.31;43.30;98818.59;5092468;27;20051;-79
2023/01/14 04:33:41;;;;;;;5.38;3.90;;;17.40;76.70;;;18.39;42.67;98828.78;5077947;27;20045;-79
2023/01/14 04:36:08;;;;;;;7.80;4.65;;;17.40;76.60;;;18.41;43.11;98831.19;5110180;27;20053;-79
2023/01/14 04:38:34;;;;;;;6.38;4.15;;;17.30;76.90;;;18.40;43.24;98835.88;5076882;27;20050;-79
2023/01/14 04:41:00;;;;;;;7.35;4.65;;;17.30;76.70;;;18.47;43.13;98834.56;5089096;27;20047;-79
2023/01/14 04:43:26;;;;;;;7.25;4.75;;;17.40;76.60;;;18.44;43.08;98836.03;5075317;27;20054;-79
2023/01/14 04:45:53;;;;;;;6.90;4.07;;;17.40;76.70;;;18.48;43.35;98827.97;5061528;27;20052;-79
2023/01/14 04:48:19;;;;;;;4.75;3.55;;;17.40;76.70;;;18.47;43.17;98829.06;5078712;27;20090;-79
2023/01/14 04:50:47;;;;;;;5.28;3.53;;;17.40;76.60;;;18.52;43.32;98834.41;5094593;27;20094;-79
2023/01/14 04:53:14;;;;;;;5.30;3.97;;;17.50;76.70;;;18.55;43.02;98826.34;5087765;27;20107;-79
2023/01/14 04:55:43;;;;;;;7.25;4.40;;;17.50;76.50;;;18.53;43.06;98828.59;5129050;27;20045;-79
2023/01/14 04:58:10;;;;;;;5.43;3.70;;;17.50;76.60;;;18.56;43.00;98829.88;5077664;27;20035;-79
2023/01/14 05:00:37;;;;;;;4.85;4.07;;;17.50;76.70;;;18.59;43.19;98834.72;5110078;27;20042;-79
2023/01/14 05:03:05;;;;;;;5.10;3.78;;;17.50;76.70;;;18.60;42.62;98845.38;5079471;28;20046;-79
2023/01/14 05:05:31;;;;;;;5.10;3.65;;;17.60;76.60;;;18.59;43.29;98846.50;5091174;27;20454;-79
2023/01/14 05:07:58;;;;;;;6.43;4.50;;;17.60;76.20;;;18.63;43.10;98843.94;5075734;28;20111;-79
2023/01/14 05:10:25;;;;;;;5.88;4.32;;;17.60;76.30;;;18.62;42.74;98843.13;5091159;28;20077;-79
2023/01/14 05:12:57;;;;;;;7.15;4.40;;;17.60;76.60;;;18.61;42.94;98838.75;5077189;28;20050;-79
2023/01/14 05:15:38;;;;;;;6.95;4.18;;;17.60;76.60;;;18.67;43.10;98844.88;5081509;28;20039;-79
2023/01/14 05:18:05;;;;;;;6.05;3.95;;;17.60;76.50;;;18.63;42.98;98841.19;5094717;28;20467;-79
2023/01/14 05:20:31;;;;;;;7.63;4.28;;;17.60;76.50;;;18.68;42.96;98840.22;5062046;28;20043;-79
2023/01/14 05:23:00;;;;;;;6.47;4.28;;;17.60;76.60;;;18.71;42.95;98847.78;5096351;28;20046;-79
2023/01/14 05:25:28;;;;;;;6.28;3.75;;;17.60;76.60;;;18.71;43.04;98842.31;5090203;28;20047;-79
2023/01/14 05:27:58;;;;;;;6.90;4.50;;;17.60;76.70;;;18.70;42.82;98857.97;5057638;28;20043;-79
2023/01/14 05:30:24;;;;;;;6.60;4.03;;;17.60;76.60;;;18.71;43.10;98859.59;5076693;28;20552;-79
2023/01/14 05:32:50;;;;;;;7.00;4.03;;;17.70;76.30;;;18.74;42.81;98861.69;5061583;28;20039;-79
2023/01/14 05:35:17;;;;;;;5.60;4.03;;;17.70;76.30;;;18.72;42.75;98860.38;5077583;27;20111;-79
2023/01/14 05:37:43;;;;;;;5.57;4.30;;;17.70;76.30;;;18.71;42.72;98867.81;5080513;27;20096;-79
2023/01/14 05:40:10;;;;;;;5.30;3.75;;;17.70;76.40;;;18.77;42.78;98872.03;5098429;27;20035;-79
2023/01/14 05:48:06;;;;;;;3.72;2.95;;;17.70;76.90;;;18.83;43.12;98881.75;5103197;27;20088;-79
2023/01/14 05:50:32;;;;;;;4.57;3.40;;;17.70;77.10;;;18.82;42.93;98885.59;5098236;27;20104;-79
2023/01/14 05:52:59;;;;;;;5.68;4.03;;;17.80;76.70;;;18.81;42.80;98895.00;5081013;27;20043;-79
2023/01/14 05:55:25;;;;;;;4.75;3.60;;;17.70;76.70;;;18.80;43.15;98896.16;5100424;27;20355;-79
2023/01/14 05:57:51;;;;;;;6.57;4.20;;;17.70;76.60;;;18.85;42.80;98898.72;5100026;27;20039;-79
2023/01/14 06:08:34;;;;;;;7.00;3.70;;;17.80;77.20;;;18.86;43.00;98903.06;5088932;27;20059;-79
2023/01/14 06:11:01;;;;;;;5.32;4.00;;;17.80;76.90;;;18.84;43.30;98908.09;5095976;27;20043;-79
2023/01/14 06:13:27;;;;;;;7.03;4.03;;;17.80;77.00;;;18.87;43.09;98909.38;5096402;27;20490;-79
2023/01/14 06:15:55;;;;;;;8.20;3.97;;;17.70;77.10;;;18.83;43.06;98913.91;5115673;27;20031;-79
2023/01/14 06:18:22;;;;;;;4.93;3.72;;;17.70;77.00;;;18.87;42.80;98921.16;5080512;27;20031;-79
2023/01/14 06:20:50;;;;;;;6.15;3.97;;;17.70;77.10;;;18.90;42.76;98925.19;5082306;27;20035;-79
2023/01/14 06:23:17;;;;;;;5.47;4.00;;;17.70;77.20;;;18.89;42.91;98923.59;5083198;27;20342;-78
2023/01/14 06:25:45;;;;;;;6.40;4.10;;;17.60;77.10;;;18.86;42.99;98919.56;5075605;27;20069;-79
2023/01/14 06:28:12;;;;;;;5.35;4.07;;;17.70;77.50;;;18.89;43.27;98923.59;5095709;27;20043;-79
2023/01/14 06:30:39;;;;;;;4.45;3.30;;;17.70;77.50;;;18.88;43.36;98919.25;5097782;27;20075;-79
2023/01/14 06:33:08;;;;;;;5.35;3.90;;;17.80;77.40;;;18.92;43.14;98922.94;5089974;27;20070;-79
2023/01/14 06:35:39;;;;;;;5.70;4.15;;;17.70;77.20;;;18.87;43.05;98920.38;5095100;27;20042;-79
2023/01/14 06:38:05;;;;;;;5.93;3.50;;;17.70;77.20;;;18.84;42.69;98923.78;5105697;27;20042;-79
2023/01/14 06:40:37;;;;;;;5.80;3.67;;;17.80;76.30;;;18.83;42.32;98922.97;5098561;27;20843;-79
2023/01/14 06:43:04;;;;;;;3.15;2.58;;;17.80;75.80;;;18.83;41.93;98925.72;5080469;27;20045;-79
2023/01/14 06:45:30;;;;;;;4.93;3.08;;;17.70;75.10;;;18.78;41.76;98933.31;5077744;27;20042;-79
2023/01/14 06:47:56;;;;;;;4.63;3.25;;;17.80;74.70;;;18.78;41.47;98923.13;5080487;27;20035;-79
2023/01/14 06:50:22;;;;;;;6.20;3.13;;;17.80;74.30;;;18.77;40.97;98932.50;5095987;27;20057;-78
2023/01/14 06:52:48;;;;;;;3.63;3.00;;;17.70;74.00;;;18.73;41.02;98928.75;5092631;27;20044;-79
2023/01/14 06:55:15;;;;;;;3.70;2.58;;;17.70;73.70;;;18.65;40.90;98946.06;5096931;27;20035;-79
2023/01/14 06:57:42;;;;;;;5.00;2.97;;;17.70;73.20;;;18.69;40.61;98933.28;5111484;27;20046;-79
2023/01/14 07:00:10;;;;;;;6.63;3.10;;;17.70;73.20;;;18.66;40.69;98936.69;5077415;27;20043;-78
2023/01/14 07:02:36;;;;;;;3.88;3.15;;;17.70;72.90;;;18.62;40.61;98941.19;5078039;27;20047;-79
2023/01/14 07:05:03;;;;;;;3.50;2.85;;;17.70;73.70;;;18.58;40.71;98940.25;5080301;27;20131;-79
2023/01/14 07:07:29;;;;;;;3.78;3.20;;;17.70;72.70;;;18.71;40.40;98943.97;5095002;27;20146;-79
2023/01/14 07:09:55;;;;;;;4.60;2.83;;;17.60;72.60;;;18.58;40.40;98941.06;5095539;27;20046;-79
2023/01/14 07:12:22;;;;;;;3.55;2.92;;;17.70;72.50;;;18.59;40.31;98941.84;5098206;27;20039;-79
2023/01/14 07:14:48;;;;;;;3.63;3.08;;;17.70;72.50;;;18.57;40.21;98935.88;5079803;27;20057;-79
2023/01/14 07:17:14;;;;;;;6.32;2.67;;;17.60;72.20;;;18.58;40.46;98940.25;5073599;27;20042;-78
2023/01/14 07:19:40;;;;;;;3.97;2.80;;;17.60;72.10;;;18.50;40.35;98943.81;5063355;27;20039;-79
2023/01/14 07:22:06;;;;;;;4.63;2.65;;;17.70;71.90;;;18.54;40.09;98939.28;5077478;27;20039;-79
2023/01/14 07:24:32;;;;;;;3.35;2.67;;;17.70;71.90;;;18.48;40.05;98944.13;5112964;27;20039;-79
2023/01/14 07:26:58;;;;;;;4.30;2.08;;;17.60;71.80;;;18.42;40.44;98935.25;5072163;27;20526;-78
2023/01/14 07:29:24;;;;;;;3.25;2.45;;;17.70;72.00;;;18.41;40.40;98946.53;5112397;27;20041;-78
2023/01/14 07:31:52;;;;;;;3.97;2.85;;;17.70;71.70;;;18.41;40.42;98946.53;5127089;27;20047;-78
2023/01/14 07:34:19;;;;;;;3.47;2.55;;;17.70;71.40;;;18.42;40.15;98953.66;5095641;27;20041;-79
2023/01/14 07:36:45;;;;;;;5.47;3.10;;;17.70;71.30;;;18.37;40.08;98945.56;5130843;27;20531;-79
2023/01/14 07:39:11;;;;;;;5.00;3.03;;;17.70;71.20;;;18.46;39.69;98953.81;5115623;27;20436;-78
2023/01/14 07:41:37;;;;;;;4.28;2.45;;;17.70;71.10;;;18.45;39.70;98958.50;5108954;27;20135;-79
2023/01/14 07:44:04;;;;;;;5.30;2.50;;;17.70;71.00;;;18.46;39.72;98960.09;5107613;27;20048;-78
2023/01/14 07:46:30;;;;;;;3.17;2.20;;;17.60;71.00;;;18.45;39.73;98966.75;5094645;27;20677;-78
2023/01/14 07:48:57;;;;;;;2.20;2.08;;;17.60;70.80;;;18.43;39.97;98969.78;5111508;27;20035;-79
2023/01/14 07:51:23;;;;;;;5.32;2.88;;;17.70;70.70;;;18.39;39.54;98982.56;5076528;27;20092;-78
2023/01/14 07:53:49;;;;;;;3.22;2.40;;;17.70;70.80;;;18.40;39.48;98975.13;5094732;27;20142;-78
2023/01/14 07:56:15;;;;;;;2.97;2.10;;;17.70;70.60;;;18.41;39.49;98974.81;5094020;27;20660;-79
2023/01/14 07:58:41;;;;;;;2.35;2.15;;;17.70;70.50;;;18.43;39.57;98988.22;5074451;27;20046;-78
2023/01/14 08:01:08;;;;;;;3.22;2.33;;;17.70;70.60;;;18.43;39.63;98983.53;5094512;27;20035;-78
2023/01/14 08:03:36;;;;;;;3.00;2.47;;;17.70;70.70;;;18.41;39.56;98985.78;5057437;27;20100;-78
2023/01/14 08:06:06;;;;;;;2.80;2.35;;;17.70;70.40;;;18.46;39.50;98981.28;5098067;27;20043;-79
2023/01/14 08:08:33;;;;;;;3.90;2.63;;;17.60;70.50;;;18.41;39.34;98991.28;5096182;27;20055;-79
2023/01/14 08:11:02;;;;;;;2.60;2.25;;;17.60;70.40;;;18.49;38.99;98997.09;5087529;27;20043;-78
2023/01/14 08:13:30;;;;;;;10.60;2.63;;;17.60;70.20;;;18.57;39.30;98999.06;5074163;27;20039;-78
2023/01/14 08:16:00;;;;;;;4.22;2.92;;;17.60;70.70;;;18.60;39.31;99001.97;5103886;27;20386;-78
2023/01/14 08:18:27;;;;;;;3.30;2.10;;;17.60;70.60;;;18.64;39.25;99013.13;5093742;27;20820;-78
2023/01/14 08:21:11;;;;;;;4.10;2.85;;;17.70;71.10;;;18.66;39.65;99013.63;5059281;27;20036;-79
2023/01/14 08:23:37;;;;;;;2.92;2.40;;;17.70;71.20;;;18.72;39.59;99011.50;5090325;27;20043;-78
2023/01/14 08:26:06;;;;;;;4.55;2.85;;;17.70;71.40;;;18.69;39.54;99012.16;5071766;27;20058;-79
2023/01/14 08:28:32;;;;;;;3.10;2.53;;;17.70;71.60;;;18.65;39.67;99012.00;5089725;27;20548;-79
2023/01/14 08:31:13;;;;;;;3.63;2.80;;;17.70;72.00;;;18.71;39.83;99016.22;5076616;27;20039;-78
2023/01/14 08:33:41;;;;;;;7.38;2.67;;;17.70;71.90;;;18.72;39.88;99009.56;5081052;27;20040;-78
2023/01/14 08:36:13;;;;;;;5.32;2.88;;;17.60;72.00;;;18.75;39.82;99008.97;5073453;27;20165;-78
2023/01/14 08:38:41;;;;;;;10.90;3.80;;;17.70;72.20;;;18.74;40.05;99009.25;5088448;27;20102;-79
2023/01/14 08:41:09;;;;;;;12.73;5.20;;;17.70;72.20;;;18.74;40.31;99021.06;5072768;27;20050;-79
2023/01/14 08:43:36;;;;;;;11.02;5.38;;;17.70;72.70;;;18.71;40.42;99016.22;5075849;27;20052;-78
2023/01/14 08:46:03;;;;;;;11.68;5.22;;;17.70;72.90;;;18.78;40.20;99024.00;5073647;27;20473;-78
2023/01/14 08:48:30;;;;;;;9.77;4.53;;;17.60;72.70;;;18.80;40.08;99018.97;5079352;27;20045;-78
2023/01/14 08:51:14;;;;;;;8.73;4.63;;;17.70;72.80;;;18.80;40.33;99019.81;5087593;27;20043;-78
2023/01/14 08:53:40;;;;;;;11.77;4.40;;;17.70;72.80;;;18.82;40.34;99023.03;5101529;27;20051;-78
2023/01/14 08:56:09;;;;;;;12.20;4.68;;;17.70;73.00;;;18.82;40.19;99020.28;5059404;28;20122;-78
2023/01/14 08:58:35;;;;;;;9.35;4.80;;;17.70;72.90;;;18.80;40.41;99025.31;5075777;27;20043;-78
2023/01/14 09:01:04;;;;;;;12.90;5.63;;;17.70;72.90;;;18.83;40.37;99027.41;5090017;28;20042;-78
2023/01/14 09:03:32;;;;;;;13.30;5.10;;;17.70;72.80;;;18.86;40.21;99034.19;5077497;27;20047;-79
2023/01/14 09:05:59;;;;;;;16.27;7.90;;;17.80;73.00;;;18.85;40.61;99038.88;5077313;27;20487;-78
2023/01/14 09:19:28;;;;;;;19.40;7.28;;;17.90;74.00;;;18.92;40.63;99037.59;5086491;27;20402;-78
2023/01/14 09:21:54;;;;;;;20.67;8.73;;;17.90;73.00;;;18.92;40.72;99040.34;5074820;28;20047;-79
2023/01/14 09:24:21;;;;;;;30.38;11.40;;;17.80;73.30;;;18.95;40.71;99032.25;5075152;28;20051;-79
2023/01/14 09:26:47;;;;;;;18.55;8.70;;;17.80;73.60;;;18.94;40.72;99029.84;5093220;28;20494;-78
2023/01/14 09:29:13;;;;;;;20.27;9.55;;;17.90;73.40;;;18.99;40.63;99032.41;5110187;28;20043;-79
2023/01/14 09:31:39;;;;;;;23.08;9.35;;;17.90;73.20;;;18.98;40.68;99037.13;5075787;28;20039;-78
2023/01/14 09:34:05;;;;;;;26.20;9.07;;;17.90;73.10;;;19.00;40.48;99034.03;5107552;28;20055;-80
2023/01/14 09:36:33;;;;;;;27.73;11.40;;;18.00;73.20;;;19.03;40.36;99036.13;5093674;28;20085;-80
2023/01/14 09:38:59;;;;;;;35.28;12.70;;;18.00;73.20;;;19.04;40.65;99033.06;5092401;28;20062;-80
2023/01/14 09:41:34;;;;;;;34.05;10.75;;;18.00;73.50;;;19.06;40.58;99027.25;5079892;28;20121;-80
2023/01/14 09:44:00;;;;;;;31.30;11.93;;;17.90;73.40;;;19.03;40.68;99022.38;5077494;28;20098;-80
2023/01/14 09:46:29;;;;;;;32.38;12.38;;;17.90;73.40;;;19.00;40.77;99023.81;5078414;28;20047;-80
2023/01/14 09:48:59;;;;;;;33.35;12.10;;;18.00;73.50;;;19.01;40.76;99024.66;5054667;28;20541;-80
2023/01/14 09:51:55;;;;;;;40.10;12.52;;;18.00;73.40;;;19.04;40.82;99024.00;5060513;28;20108;-80
2023/01/14 09:54:51;;;;;;;34.17;13.32;;;18.00;73.40;;;19.04;40.93;99032.25;5087499;28;20089;-80
2023/01/14 09:57:55;;;;;;;33.03;13.60;;;18.10;73.60;;;19.08;40.80;99025.78;5113714;28;20047;-80
2023/01/14 10:01:07;;;;;;;31.27;11.68;;;18.10;73.60;;;19.02;40.94;99020.75;5092416;28;20080;-80
2023/01/14 10:03:59;;;;;;;38.10;13.18;;;18.20;73.50;;;18.98;40.84;99025.28;5100152;28;20058;-80
2023/01/14 10:06:28;;;;;;;31.98;12.73;;;18.10;73.40;;;19.00;40.96;99017.53;5089364;28;20067;-80
2023/01/14 10:09:10;;;;;;;35.20;13.68;;;18.10;73.40;;;19.00;41.02;99012.81;5094103;28;20053;-80
2023/01/14 10:11:38;;;;;;;40.65;14.95;;;18.10;73.50;;;19.03;40.93;99011.38;5073493;28;20047;-80
2023/01/14 10:14:15;;;;;;;43.22;16.55;;;18.20;73.50;;;19.02;41.18;98998.78;5061725;28;20058;-80
2023/01/14 10:16:46;;;;;;;39.83;15.57;;;18.10;74.50;;;19.03;41.04;98990.22;5076941;28;20047;-80
2023/01/14 10:19:21;;;;;;;42.05;13.80;;;18.10;73.50;;;19.05;40.88;99003.63;5060899;28;20737;-80
2023/01/14 10:22:06;;;;;;;43.45;15.40;;;18.20;73.50;;;19.06;40.89;99005.25;5092810;27;20043;-80
2023/01/14 10:24:41;;;;;;;36.90;13.63;;;18.20;73.60;;;19.09;40.99;99015.59;5085016;27;20048;-80
2023/01/14 10:27:18;;;;;;;41.25;17.83;;;18.20;73.40;;;19.05;41.08;99009.13;5100066;27;20122;-80
2023/01/14 10:29:45;;;;;;;49.10;18.10;;;18.20;73.70;;;19.05;41.12;99006.38;5061888;27;20039;-80
2023/01/14 10:32:14;;;;;;;44.28;15.40;;;18.20;73.80;;;19.06;40.96;99000.56;5065241;27;20039;-80
2023/01/14 10:34:48;;;;;;;47.35;15.32;;;18.20;73.60;;;19.05;41.03;98998.13;5094583;27;20048;-81
2023/01/14 10:37:14;;;;;;;37.05;15.70;;;18.20;73.60;;;19.08;40.99;98991.97;5076590;27;20746;-80
2023/01/14 10:39:52;;;;;;;42.95;15.93;;;18.20;73.60;;;19.03;41.06;98990.22;5094486;27;20284;-80
2023/01/14 10:42:27;;;;;;;47.90;16.95;;;18.20;73.60;;;19.05;41.19;98992.63;5115624;27;20154;-81
2023/01/14 10:44:53;;;;;;;48.03;16.13;;;18.20;73.70;;;19.04;41.47;98991.81;5098235;27;20035;-80
2023/01/14 10:47:20;;;;;;;49.92;15.68;;;18.30;73.80;;;19.09;41.32;98985.34;5079592;27;20039;-80
2023/01/14 10:49:55;;;;;;;46.00;17.02;;;18.20;73.70;;;19.07;41.12;98987.59;5063523;27;20045;-80
2023/01/14 10:52:33;;;;;;;49.30;16.42;;;18.20;73.70;;;19.05;41.18;98979.69;5079967;27;20035;-80
2023/01/14 10:55:12;;;;;;;45.47;16.80;;;18.20;73.80;;;19.03;41.10;98984.72;5095638;27;20670;-80
2023/01/14 10:57:55;;;;;;;36.95;14.65;;;18.20;73.60;;;19.08;41.26;98984.53;5128882;27;20035;-80
2023/01/14 11:00:40;;;;;;;43.85;16.98;;;18.30;73.70;;;19.10;41.18;98978.69;5112982;27;20155;-81
2023/01/14 11:03:23;;;;;;;37.28;15.98;;;18.20;73.70;;;19.08;41.21;98975.47;5096181;27;20035;-80